Hesperange, Luxembourg
Current Conditions -  °F | °C
As of 11:20 PM on Monday 20 Oct 2014 (Local Time) from ELLX Reporting Station
Few Clouds Few Clouds  
Wind Chill: 50°   Ceiling: Unl
Heat Index: 50°   Visibility: 5mi
Dew Point: 50°   Wind: 6mph
Humidity: 100%   Direction: 250°WSW
Pressure: 30.03"   Gusts: NA
Location:  49.57°N, 6.15°E
Report Text: ELLX 202120Z 25005KT 8000 FEW010 10/10 Q1017 NOSIG
Loading
Personal Weather Stations






























Interactive Weather Map
Tropical Storm Tracking
New forecast layout! Learn more

10-Day Weather Forecast

Advertisements
Track Severe Weather on mobile